sensor_id;sensor_type;location;lat;lon;timestamp;temperature;humidity
9666;DHT22;4871;52.004;5.924;2022-10-16T00:00:00;12.7;73.6
9666;DHT22;4871;52.004;5.924;2022-10-16T00:01:15;12.7;73.6
9666;DHT22;4871;52.004;5.924;2022-10-16T00:02:00;12.7;73.5
9666;DHT22;4871;52.004;5.924;2022-10-16T00:03:00;12.7;73.4
9666;DHT22;4871;52.004;5.924;2022-10-16T00:04:01;12.7;73.5
9666;DHT22;4871;52.004;5.924;2022-10-16T00:05:00;12.7;73.5
9666;DHT22;4871;52.004;5.924;2022-10-16T00:06:01;12.7;73.5
9666;DHT22;4871;52.004;5.924;2022-10-16T00:07:00;12.7;73.4
9666;DHT22;4871;52.004;5.924;2022-10-16T00:08:00;12.7;73.4
9666;DHT22;4871;52.004;5.924;2022-10-16T00:09:00;12.7;73.5
9666;DHT22;4871;52.004;5.924;2022-10-16T00:10:00;12.7;73.3
9666;DHT22;4871;52.004;5.924;2022-10-16T00:11:01;12.7;73.4
9666;DHT22;4871;52.004;5.924;2022-10-16T00:12:00;12.7;73.3
9666;DHT22;4871;52.004;5.924;2022-10-16T00:13:00;12.7;73.5
9666;DHT22;4871;52.004;5.924;2022-10-16T00:14:01;12.7;73.1
9666;DHT22;4871;52.004;5.924;2022-10-16T00:15:00;12.7;73.3
9666;DHT22;4871;52.004;5.924;2022-10-16T00:16:00;12.7;73.3
9666;DHT22;4871;52.004;5.924;2022-10-16T00:17:00;12.7;73.4
9666;DHT22;4871;52.004;5.924;2022-10-16T00:18:00;12.7;73.3
9666;DHT22;4871;52.004;5.924;2022-10-16T00:19:00;12.6;73.4
9666;DHT22;4871;52.004;5.924;2022-10-16T00:20:00;12.6;73.4
9666;DHT22;4871;52.004;5.924;2022-10-16T00:21:03;12.6;73.4
9666;DHT22;4871;52.004;5.924;2022-10-16T00:22:00;12.6;73.4
9666;DHT22;4871;52.004;5.924;2022-10-16T00:23:00;12.6;73.5
9666;DHT22;4871;52.004;5.924;2022-10-16T00:24:04;12.6;73.6
9666;DHT22;4871;52.004;5.924;2022-10-16T00:25:00;12.6;73.7
9666;DHT22;4871;52.004;5.924;2022-10-16T00:26:03;12.6;73.5
9666;DHT22;4871;52.004;5.924;2022-10-16T00:27:00;12.6;73.6
9666;DHT22;4871;52.004;5.924;2022-10-16T00:28:00;12.6;73.6
9666;DHT22;4871;52.004;5.924;2022-10-16T00:29:00;12.6;73.6
9666;DHT22;4871;52.004;5.924;2022-10-16T00:30:00;12.5;73.5
9666;DHT22;4871;52.004;5.924;2022-10-16T00:31:04;12.5;73.6
9666;DHT22;4871;52.004;5.924;2022-10-16T00:32:00;12.5;73.6
9666;DHT22;4871;52.004;5.924;2022-10-16T00:33:00;12.6;73.6
9666;DHT22;4871;52.004;5.924;2022-10-16T00:34:00;12.5;73.5
9666;DHT22;4871;52.004;5.924;2022-10-16T00:35:00;12.5;73.7
9666;DHT22;4871;52.004;5.924;2022-10-16T00:36:01;12.5;73.6
9666;DHT22;4871;52.004;5.924;2022-10-16T00:37:00;12.5;73.5
9666;DHT22;4871;52.004;5.924;2022-10-16T00:38:00;12.5;73.5
9666;DHT22;4871;52.004;5.924;2022-10-16T00:39:01;12.5;73.5
9666;DHT22;4871;52.004;5.924;2022-10-16T00:40:00;12.5;73.5
9666;DHT22;4871;52.004;5.924;2022-10-16T00:41:00;12.5;73.6
9666;DHT22;4871;52.004;5.924;2022-10-16T00:42:00;12.5;73.5
9666;DHT22;4871;52.004;5.924;2022-10-16T00:43:00;12.5;73.5
9666;DHT22;4871;52.004;5.924;2022-10-16T00:44:03;12.5;73.4
9666;DHT22;4871;52.004;5.924;2022-10-16T00:45:00;12.5;73.5
9666;DHT22;4871;52.004;5.924;2022-10-16T00:46:01;12.5;73.5
9666;DHT22;4871;52.004;5.924;2022-10-16T00:47:00;12.5;73.8
9666;DHT22;4871;52.004;5.924;2022-10-16T00:48:00;12.5;73.6
9666;DHT22;4871;52.004;5.924;2022-10-16T00:49:03;12.4;74.4
9666;DHT22;4871;52.004;5.924;2022-10-16T00:50:06;12.5;74.1
9666;DHT22;4871;52.004;5.924;2022-10-16T00:51:00;12.5;73.7
9666;DHT22;4871;52.004;5.924;2022-10-16T00:52:00;12.5;73.7
9666;DHT22;4871;52.004;5.924;2022-10-16T00:53:01;12.5;73.6
9666;DHT22;4871;52.004;5.924;2022-10-16T00:54:01;12.5;73.5
9666;DHT22;4871;52.004;5.924;2022-10-16T00:55:01;12.4;73.6
9666;DHT22;4871;52.004;5.924;2022-10-16T00:56:00;12.5;73.6
9666;DHT22;4871;52.004;5.924;2022-10-16T00:57:02;12.5;73.5
9666;DHT22;4871;52.004;5.924;2022-10-16T00:58:00;12.4;73.5
9666;DHT22;4871;52.004;5.924;2022-10-16T00:59:03;12.4;73.6
9666;DHT22;4871;52.004;5.924;2022-10-16T01:00:00;12.4;73.7
9666;DHT22;4871;52.004;5.924;2022-10-16T01:01:00;12.4;73.9
9666;DHT22;4871;52.004;5.924;2022-10-16T01:02:01;12.4;74.0
9666;DHT22;4871;52.004;5.924;2022-10-16T01:03:01;12.4;74.3
9666;DHT22;4871;52.004;5.924;2022-10-16T01:04:00;12.4;74.0
9666;DHT22;4871;52.004;5.924;2022-10-16T01:05:00;12.4;73.8
9666;DHT22;4871;52.004;5.924;2022-10-16T01:06:15;12.4;73.6
9666;DHT22;4871;52.004;5.924;2022-10-16T01:07:20;12.4;73.6
9666;DHT22;4871;52.004;5.924;2022-10-16T01:08:13;12.4;73.7
9666;DHT22;4871;52.004;5.924;2022-10-16T01:09:16;12.4;73.4
9666;DHT22;4871;52.004;5.924;2022-10-16T01:10:14;12.5;73.5
9666;DHT22;4871;52.004;5.924;2022-10-16T01:11:07;12.4;73.5
9666;DHT22;4871;52.004;5.924;2022-10-16T01:12:09;12.4;73.5
9666;DHT22;4871;52.004;5.924;2022-10-16T01:13:18;12.4;73.5
9666;DHT22;4871;52.004;5.924;2022-10-16T01:14:07;12.4;73.7
9666;DHT22;4871;52.004;5.924;2022-10-16T01:16:05;12.4;75.0
9666;DHT22;4871;52.004;5.924;2022-10-16T01:17:04;12.4;73.9
9666;DHT22;4871;52.004;5.924;2022-10-16T01:18:07;12.4;73.8
9666;DHT22;4871;52.004;5.924;2022-10-16T01:19:09;12.4;74.2
9666;DHT22;4871;52.004;5.924;2022-10-16T01:20:09;12.4;74.3
9666;DHT22;4871;52.004;5.924;2022-10-16T01:21:03;12.4;73.9
9666;DHT22;4871;52.004;5.924;2022-10-16T01:22:00;12.4;73.7
9666;DHT22;4871;52.004;5.924;2022-10-16T01:25:02;12.4;73.6
9666;DHT22;4871;52.004;5.924;2022-10-16T01:26:21;12.4;73.7
9666;DHT22;4871;52.004;5.924;2022-10-16T01:27:21;12.4;73.6
9666;DHT22;4871;52.004;5.924;2022-10-16T01:28:02;12.4;73.6
9666;DHT22;4871;52.004;5.924;2022-10-16T01:29:05;12.4;73.9
9666;DHT22;4871;52.004;5.924;2022-10-16T01:30:20;12.4;73.7
9666;DHT22;4871;52.004;5.924;2022-10-16T01:31:01;12.4;73.7
9666;DHT22;4871;52.004;5.924;2022-10-16T01:32:05;12.4;73.5
9666;DHT22;4871;52.004;5.924;2022-10-16T01:33:08;12.4;73.6
9666;DHT22;4871;52.004;5.924;2022-10-16T01:34:08;12.4;73.4
9666;DHT22;4871;52.004;5.924;2022-10-16T01:35:11;12.4;73.6
9666;DHT22;4871;52.004;5.924;2022-10-16T01:36:05;12.4;73.5
9666;DHT22;4871;52.004;5.924;2022-10-16T01:37:05;12.4;73.4
9666;DHT22;4871;52.004;5.924;2022-10-16T01:38:06;12.4;73.4
9666;DHT22;4871;52.004;5.924;2022-10-16T01:39:01;12.4;73.6
9666;DHT22;4871;52.004;5.924;2022-10-16T01:40:03;12.4;74.5
9666;DHT22;4871;52.004;5.924;2022-10-16T01:41:04;12.4;73.6
9666;DHT22;4871;52.004;5.924;2022-10-16T01:42:06;12.4;73.8
9666;DHT22;4871;52.004;5.924;2022-10-16T01:43:04;12.4;74.0
9666;DHT22;4871;52.004;5.924;2022-10-16T01:44:04;12.4;74.2
9666;DHT22;4871;52.004;5.924;2022-10-16T01:45:00;12.4;73.8
9666;DHT22;4871;52.004;5.924;2022-10-16T01:46:00;12.4;73.7
9666;DHT22;4871;52.004;5.924;2022-10-16T01:47:00;12.4;73.5
9666;DHT22;4871;52.004;5.924;2022-10-16T01:48:01;12.4;73.7
9666;DHT22;4871;52.004;5.924;2022-10-16T01:49:01;12.4;73.5
9666;DHT22;4871;52.004;5.924;2022-10-16T01:50:02;12.4;73.5
9666;DHT22;4871;52.004;5.924;2022-10-16T01:51:06;12.4;73.6
9666;DHT22;4871;52.004;5.924;2022-10-16T01:52:04;12.4;73.8
9666;DHT22;4871;52.004;5.924;2022-10-16T01:53:02;12.4;73.8
9666;DHT22;4871;52.004;5.924;2022-10-16T01:54:01;12.4;73.7
9666;DHT22;4871;52.004;5.924;2022-10-16T01:55:02;12.4;73.6
9666;DHT22;4871;52.004;5.924;2022-10-16T01:56:01;12.4;73.4
9666;DHT22;4871;52.004;5.924;2022-10-16T01:57:01;12.4;73.3
9666;DHT22;4871;52.004;5.924;2022-10-16T01:58:01;12.5;73.3
9666;DHT22;4871;52.004;5.924;2022-10-16T01:59:06;12.5;73.2
9666;DHT22;4871;52.004;5.924;2022-10-16T02:00:04;12.4;73.3
9666;DHT22;4871;52.004;5.924;2022-10-16T02:01:01;12.4;73.4
9666;DHT22;4871;52.004;5.924;2022-10-16T02:02:04;12.5;73.5
9666;DHT22;4871;52.004;5.924;2022-10-16T02:03:01;12.5;73.6
9666;DHT22;4871;52.004;5.924;2022-10-16T02:04:07;12.5;73.6
9666;DHT22;4871;52.004;5.924;2022-10-16T02:05:08;12.5;73.4
9666;DHT22;4871;52.004;5.924;2022-10-16T02:06:00;12.5;74.3
9666;DHT22;4871;52.004;5.924;2022-10-16T02:07:00;12.5;74.4
9666;DHT22;4871;52.004;5.924;2022-10-16T02:08:00;12.4;74.2
9666;DHT22;4871;52.004;5.924;2022-10-16T02:09:00;12.5;73.8
9666;DHT22;4871;52.004;5.924;2022-10-16T02:10:00;12.5;73.7
9666;DHT22;4871;52.004;5.924;2022-10-16T02:11:00;12.5;74.0
9666;DHT22;4871;52.004;5.924;2022-10-16T02:12:15;12.5;73.8
9666;DHT22;4871;52.004;5.924;2022-10-16T02:13:06;12.5;73.7
9666;DHT22;4871;52.004;5.924;2022-10-16T02:14:14;12.5;73.8
9666;DHT22;4871;52.004;5.924;2022-10-16T02:15:00;12.5;73.9
9666;DHT22;4871;52.004;5.924;2022-10-16T02:16:00;12.5;75.1
9666;DHT22;4871;52.004;5.924;2022-10-16T02:17:00;12.4;74.7
9666;DHT22;4871;52.004;5.924;2022-10-16T02:18:01;12.5;74.2
9666;DHT22;4871;52.004;5.924;2022-10-16T02:19:00;12.5;74.1
9666;DHT22;4871;52.004;5.924;2022-10-16T02:20:00;12.5;75.1
9666;DHT22;4871;52.004;5.924;2022-10-16T02:21:10;12.5;74.0
9666;DHT22;4871;52.004;5.924;2022-10-16T02:22:03;12.6;73.9
9666;DHT22;4871;52.004;5.924;2022-10-16T02:23:00;12.6;73.9
9666;DHT22;4871;52.004;5.924;2022-10-16T02:24:06;12.6;73.9
9666;DHT22;4871;52.004;5.924;2022-10-16T02:25:09;12.6;73.5
9666;DHT22;4871;52.004;5.924;2022-10-16T02:26:02;12.6;73.8
9666;DHT22;4871;52.004;5.924;2022-10-16T02:27:11;12.6;73.5
9666;DHT22;4871;52.004;5.924;2022-10-16T02:28:03;12.6;73.7
9666;DHT22;4871;52.004;5.924;2022-10-16T02:29:04;12.6;73.5
9666;DHT22;4871;52.004;5.924;2022-10-16T02:31:03;12.7;73.6
9666;DHT22;4871;52.004;5.924;2022-10-16T02:32:02;12.7;73.6
9666;DHT22;4871;52.004;5.924;2022-10-16T02:33:02;12.7;74.8
9666;DHT22;4871;52.004;5.924;2022-10-16T02:34:01;12.6;74.5
9666;DHT22;4871;52.004;5.924;2022-10-16T02:35:01;12.6;73.9
9666;DHT22;4871;52.004;5.924;2022-10-16T02:36:00;12.6;74.5
9666;DHT22;4871;52.004;5.924;2022-10-16T02:37:01;12.6;75.3
9666;DHT22;4871;52.004;5.924;2022-10-16T02:38:00;12.6;74.8
9666;DHT22;4871;52.004;5.924;2022-10-16T02:39:02;12.6;74.0
9666;DHT22;4871;52.004;5.924;2022-10-16T02:40:00;12.6;76.2
9666;DHT22;4871;52.004;5.924;2022-10-16T02:41:00;12.6;76.7
9666;DHT22;4871;52.004;5.924;2022-10-16T02:42:00;12.6;74.4
9666;DHT22;4871;52.004;5.924;2022-10-16T02:43:00;12.6;74.3
9666;DHT22;4871;52.004;5.924;2022-10-16T02:44:00;12.7;74.7
9666;DHT22;4871;52.004;5.924;2022-10-16T02:45:00;12.7;74.0
9666;DHT22;4871;52.004;5.924;2022-10-16T02:46:00;12.7;75.5
9666;DHT22;4871;52.004;5.924;2022-10-16T02:47:00;12.7;74.2
9666;DHT22;4871;52.004;5.924;2022-10-16T02:48:00;12.7;73.9
9666;DHT22;4871;52.004;5.924;2022-10-16T02:49:00;12.7;73.9
9666;DHT22;4871;52.004;5.924;2022-10-16T02:50:00;12.7;73.9
9666;DHT22;4871;52.004;5.924;2022-10-16T02:51:00;12.7;73.9
9666;DHT22;4871;52.004;5.924;2022-10-16T02:52:00;12.7;73.9
9666;DHT22;4871;52.004;5.924;2022-10-16T02:53:00;12.7;73.5
9666;DHT22;4871;52.004;5.924;2022-10-16T02:54:01;12.7;73.7
9666;DHT22;4871;52.004;5.924;2022-10-16T02:55:00;12.7;74.0
9666;DHT22;4871;52.004;5.924;2022-10-16T02:56:00;12.7;74.9
9666;DHT22;4871;52.004;5.924;2022-10-16T02:57:00;12.7;74.2
9666;DHT22;4871;52.004;5.924;2022-10-16T02:58:00;12.7;73.9
9666;DHT22;4871;52.004;5.924;2022-10-16T02:59:00;12.7;73.6
9666;DHT22;4871;52.004;5.924;2022-10-16T03:00:00;12.7;73.6
9666;DHT22;4871;52.004;5.924;2022-10-16T03:01:00;12.7;73.5
9666;DHT22;4871;52.004;5.924;2022-10-16T03:02:00;12.7;73.6
9666;DHT22;4871;52.004;5.924;2022-10-16T03:03:00;12.7;73.7
9666;DHT22;4871;52.004;5.924;2022-10-16T03:04:00;12.6;73.7
9666;DHT22;4871;52.004;5.924;2022-10-16T03:05:00;12.6;74.2
9666;DHT22;4871;52.004;5.924;2022-10-16T03:06:00;12.6;73.7
9666;DHT22;4871;52.004;5.924;2022-10-16T03:07:00;12.6;74.0
9666;DHT22;4871;52.004;5.924;2022-10-16T03:08:00;12.5;75.2
9666;DHT22;4871;52.004;5.924;2022-10-16T03:09:00;12.5;75.0
9666;DHT22;4871;52.004;5.924;2022-10-16T03:10:00;12.5;74.8
9666;DHT22;4871;52.004;5.924;2022-10-16T03:11:00;12.6;74.5
9666;DHT22;4871;52.004;5.924;2022-10-16T03:12:00;12.6;74.2
9666;DHT22;4871;52.004;5.924;2022-10-16T03:13:00;12.6;75.4
9666;DHT22;4871;52.004;5.924;2022-10-16T03:14:00;12.6;74.8
9666;DHT22;4871;52.004;5.924;2022-10-16T03:15:00;12.6;75.5
9666;DHT22;4871;52.004;5.924;2022-10-16T03:16:00;12.6;74.5
9666;DHT22;4871;52.004;5.924;2022-10-16T03:17:00;12.6;76.4
9666;DHT22;4871;52.004;5.924;2022-10-16T03:18:00;12.6;74.5
9666;DHT22;4871;52.004;5.924;2022-10-16T03:19:00;12.6;75.0
9666;DHT22;4871;52.004;5.924;2022-10-16T03:20:00;12.6;74.3
9666;DHT22;4871;52.004;5.924;2022-10-16T03:21:00;12.7;74.2
9666;DHT22;4871;52.004;5.924;2022-10-16T03:22:00;12.7;74.1
9666;DHT22;4871;52.004;5.924;2022-10-16T03:23:00;12.7;74.6
9666;DHT22;4871;52.004;5.924;2022-10-16T03:24:00;12.7;74.1
9666;DHT22;4871;52.004;5.924;2022-10-16T03:25:00;12.7;74.2
9666;DHT22;4871;52.004;5.924;2022-10-16T03:26:00;12.7;74.1
9666;DHT22;4871;52.004;5.924;2022-10-16T03:27:00;12.7;74.2
9666;DHT22;4871;52.004;5.924;2022-10-16T03:28:00;12.7;74.9
9666;DHT22;4871;52.004;5.924;2022-10-16T03:29:00;12.7;74.6
9666;DHT22;4871;52.004;5.924;2022-10-16T03:30:00;12.7;74.4
9666;DHT22;4871;52.004;5.924;2022-10-16T03:31:00;12.7;74.1
9666;DHT22;4871;52.004;5.924;2022-10-16T03:32:00;12.7;74.3
9666;DHT22;4871;52.004;5.924;2022-10-16T03:33:00;12.7;74.1
9666;DHT22;4871;52.004;5.924;2022-10-16T03:34:00;12.7;74.1
9666;DHT22;4871;52.004;5.924;2022-10-16T03:35:00;12.7;74.1
9666;DHT22;4871;52.004;5.924;2022-10-16T03:36:00;12.7;76.0
9666;DHT22;4871;52.004;5.924;2022-10-16T03:37:00;12.6;74.8
9666;DHT22;4871;52.004;5.924;2022-10-16T03:38:00;12.7;75.3
9666;DHT22;4871;52.004;5.924;2022-10-16T03:39:00;12.7;74.3
9666;DHT22;4871;52.004;5.924;2022-10-16T03:40:00;12.7;74.7
9666;DHT22;4871;52.004;5.924;2022-10-16T03:41:00;12.7;76.4
9666;DHT22;4871;52.004;5.924;2022-10-16T03:42:00;12.6;74.6
9666;DHT22;4871;52.004;5.924;2022-10-16T03:43:00;12.7;74.8
9666;DHT22;4871;52.004;5.924;2022-10-16T03:44:00;12.6;76.0
9666;DHT22;4871;52.004;5.924;2022-10-16T03:45:00;12.6;74.7
9666;DHT22;4871;52.004;5.924;2022-10-16T03:46:00;12.7;74.6
9666;DHT22;4871;52.004;5.924;2022-10-16T03:47:00;12.7;74.7
9666;DHT22;4871;52.004;5.924;2022-10-16T03:48:00;12.7;75.4
9666;DHT22;4871;52.004;5.924;2022-10-16T03:49:00;12.6;75.1
9666;DHT22;4871;52.004;5.924;2022-10-16T03:50:00;12.6;75.2
9666;DHT22;4871;52.004;5.924;2022-10-16T03:51:00;12.6;76.0
9666;DHT22;4871;52.004;5.924;2022-10-16T03:52:00;12.6;74.8
9666;DHT22;4871;52.004;5.924;2022-10-16T03:53:00;12.7;74.7
9666;DHT22;4871;52.004;5.924;2022-10-16T03:54:00;12.7;74.5
9666;DHT22;4871;52.004;5.924;2022-10-16T03:55:00;12.7;74.3
9666;DHT22;4871;52.004;5.924;2022-10-16T03:56:00;12.7;74.4
9666;DHT22;4871;52.004;5.924;2022-10-16T03:57:00;12.7;74.6
9666;DHT22;4871;52.004;5.924;2022-10-16T03:58:00;12.7;75.4
9666;DHT22;4871;52.004;5.924;2022-10-16T03:59:00;12.6;74.8
9666;DHT22;4871;52.004;5.924;2022-10-16T04:00:00;12.7;75.5
9666;DHT22;4871;52.004;5.924;2022-10-16T04:01:00;12.7;74.8
9666;DHT22;4871;52.004;5.924;2022-10-16T04:02:00;12.7;74.5
9666;DHT22;4871;52.004;5.924;2022-10-16T04:03:00;12.7;75.9
9666;DHT22;4871;52.004;5.924;2022-10-16T04:04:00;12.7;74.5
9666;DHT22;4871;52.004;5.924;2022-10-16T04:05:00;12.7;74.8
9666;DHT22;4871;52.004;5.924;2022-10-16T04:06:00;12.7;74.4
9666;DHT22;4871;52.004;5.924;2022-10-16T04:07:00;12.7;75.1
9666;DHT22;4871;52.004;5.924;2022-10-16T04:08:00;12.7;75.0
9666;DHT22;4871;52.004;5.924;2022-10-16T04:09:00;12.7;74.6
9666;DHT22;4871;52.004;5.924;2022-10-16T04:10:00;12.7;76.1
9666;DHT22;4871;52.004;5.924;2022-10-16T04:11:00;12.6;74.9
9666;DHT22;4871;52.004;5.924;2022-10-16T04:12:00;12.6;76.9
9666;DHT22;4871;52.004;5.924;2022-10-16T04:13:00;12.6;75.0
9666;DHT22;4871;52.004;5.924;2022-10-16T04:14:00;12.6;75.0
9666;DHT22;4871;52.004;5.924;2022-10-16T04:15:00;12.7;74.6
9666;DHT22;4871;52.004;5.924;2022-10-16T04:16:00;12.7;74.6
9666;DHT22;4871;52.004;5.924;2022-10-16T04:17:00;12.7;74.7
9666;DHT22;4871;52.004;5.924;2022-10-16T04:18:00;12.7;74.7
9666;DHT22;4871;52.004;5.924;2022-10-16T04:19:00;12.7;74.4
9666;DHT22;4871;52.004;5.924;2022-10-16T04:20:00;12.7;74.4
9666;DHT22;4871;52.004;5.924;2022-10-16T04:21:07;12.7;74.1
9666;DHT22;4871;52.004;5.924;2022-10-16T04:22:00;12.7;75.6
9666;DHT22;4871;52.004;5.924;2022-10-16T04:23:00;12.7;74.8
9666;DHT22;4871;52.004;5.924;2022-10-16T04:24:00;12.7;74.8
9666;DHT22;4871;52.004;5.924;2022-10-16T04:25:00;12.7;74.8
9666;DHT22;4871;52.004;5.924;2022-10-16T04:26:00;12.7;74.7
9666;DHT22;4871;52.004;5.924;2022-10-16T04:27:00;12.7;74.6
9666;DHT22;4871;52.004;5.924;2022-10-16T04:28:00;12.7;76.9
9666;DHT22;4871;52.004;5.924;2022-10-16T04:29:00;12.7;74.7
9666;DHT22;4871;52.004;5.924;2022-10-16T04:30:00;12.7;74.5
9666;DHT22;4871;52.004;5.924;2022-10-16T04:31:03;12.8;74.6
9666;DHT22;4871;52.004;5.924;2022-10-16T04:32:00;12.8;74.3
9666;DHT22;4871;52.004;5.924;2022-10-16T04:33:00;12.8;74.7
9666;DHT22;4871;52.004;5.924;2022-10-16T04:34:00;12.8;74.2
9666;DHT22;4871;52.004;5.924;2022-10-16T04:35:00;12.8;74.4
9666;DHT22;4871;52.004;5.924;2022-10-16T04:36:01;12.8;74.9
9666;DHT22;4871;52.004;5.924;2022-10-16T04:37:00;12.8;74.5
9666;DHT22;4871;52.004;5.924;2022-10-16T04:38:00;12.8;74.5
9666;DHT22;4871;52.004;5.924;2022-10-16T04:39:00;12.8;74.3
9666;DHT22;4871;52.004;5.924;2022-10-16T04:40:00;12.8;74.6
9666;DHT22;4871;52.004;5.924;2022-10-16T04:41:00;12.8;74.3
9666;DHT22;4871;52.004;5.924;2022-10-16T04:42:00;12.8;75.8
9666;DHT22;4871;52.004;5.924;2022-10-16T04:43:00;12.7;75.5
9666;DHT22;4871;52.004;5.924;2022-10-16T04:44:00;12.7;75.0
9666;DHT22;4871;52.004;5.924;2022-10-16T04:45:00;12.8;74.6
9666;DHT22;4871;52.004;5.924;2022-10-16T04:46:00;12.8;75.4
9666;DHT22;4871;52.004;5.924;2022-10-16T04:47:00;12.7;76.0
9666;DHT22;4871;52.004;5.924;2022-10-16T04:48:00;12.8;74.8
9666;DHT22;4871;52.004;5.924;2022-10-16T04:49:00;12.8;75.0
9666;DHT22;4871;52.004;5.924;2022-10-16T04:50:02;12.8;74.7
9666;DHT22;4871;52.004;5.924;2022-10-16T04:51:00;12.8;74.6
9666;DHT22;4871;52.004;5.924;2022-10-16T04:52:00;12.8;74.7
9666;DHT22;4871;52.004;5.924;2022-10-16T04:53:00;12.8;75.8
9666;DHT22;4871;52.004;5.924;2022-10-16T04:54:00;12.8;75.4
9666;DHT22;4871;52.004;5.924;2022-10-16T04:55:02;12.8;76.3
9666;DHT22;4871;52.004;5.924;2022-10-16T04:56:00;12.7;75.7
9666;DHT22;4871;52.004;5.924;2022-10-16T04:57:00;12.8;75.3
9666;DHT22;4871;52.004;5.924;2022-10-16T04:58:00;12.8;74.8
9666;DHT22;4871;52.004;5.924;2022-10-16T04:59:00;12.8;75.0
9666;DHT22;4871;52.004;5.924;2022-10-16T05:00:00;12.8;76.0
9666;DHT22;4871;52.004;5.924;2022-10-16T05:01:00;12.7;75.5
9666;DHT22;4871;52.004;5.924;2022-10-16T05:02:00;12.7;74.9
9666;DHT22;4871;52.004;5.924;2022-10-16T05:03:00;12.7;75.3
9666;DHT22;4871;52.004;5.924;2022-10-16T05:04:00;12.7;75.1
9666;DHT22;4871;52.004;5.924;2022-10-16T05:05:00;12.7;76.1
9666;DHT22;4871;52.004;5.924;2022-10-16T05:06:00;12.7;75.3
9666;DHT22;4871;52.004;5.924;2022-10-16T05:07:00;12.7;75.0
9666;DHT22;4871;52.004;5.924;2022-10-16T05:08:00;12.8;74.9
9666;DHT22;4871;52.004;5.924;2022-10-16T05:09:00;12.7;75.4
9666;DHT22;4871;52.004;5.924;2022-10-16T05:10:00;12.8;75.0
9666;DHT22;4871;52.004;5.924;2022-10-16T05:11:00;12.8;74.5
9666;DHT22;4871;52.004;5.924;2022-10-16T05:12:00;12.7;75.7
9666;DHT22;4871;52.004;5.924;2022-10-16T05:13:00;12.7;74.7
9666;DHT22;4871;52.004;5.924;2022-10-16T05:14:00;12.7;75.7
9666;DHT22;4871;52.004;5.924;2022-10-16T05:15:00;12.7;76.3
9666;DHT22;4871;52.004;5.924;2022-10-16T05:16:00;12.7;75.4
9666;DHT22;4871;52.004;5.924;2022-10-16T05:17:00;12.7;75.8
9666;DHT22;4871;52.004;5.924;2022-10-16T05:18:00;12.7;75.0
9666;DHT22;4871;52.004;5.924;2022-10-16T05:19:00;12.8;74.7
9666;DHT22;4871;52.004;5.924;2022-10-16T05:20:00;12.8;74.8
9666;DHT22;4871;52.004;5.924;2022-10-16T05:21:00;12.8;74.7
9666;DHT22;4871;52.004;5.924;2022-10-16T05:22:00;12.8;74.4
9666;DHT22;4871;52.004;5.924;2022-10-16T05:23:00;12.8;74.5
9666;DHT22;4871;52.004;5.924;2022-10-16T05:24:00;12.8;74.5
9666;DHT22;4871;52.004;5.924;2022-10-16T05:25:00;12.8;75.0
9666;DHT22;4871;52.004;5.924;2022-10-16T05:26:00;12.7;74.6
9666;DHT22;4871;52.004;5.924;2022-10-16T05:27:00;12.7;74.6
9666;DHT22;4871;52.004;5.924;2022-10-16T05:28:00;12.7;74.7
9666;DHT22;4871;52.004;5.924;2022-10-16T05:29:00;12.7;74.6
9666;DHT22;4871;52.004;5.924;2022-10-16T05:30:00;12.7;74.4
9666;DHT22;4871;52.004;5.924;2022-10-16T05:31:04;12.7;74.7
9666;DHT22;4871;52.004;5.924;2022-10-16T05:32:00;12.7;74.5
9666;DHT22;4871;52.004;5.924;2022-10-16T05:33:00;12.7;75.4
9666;DHT22;4871;52.004;5.924;2022-10-16T05:34:00;12.7;74.8
9666;DHT22;4871;52.004;5.924;2022-10-16T05:35:00;12.7;74.6
9666;DHT22;4871;52.004;5.924;2022-10-16T05:36:08;12.7;74.6
9666;DHT22;4871;52.004;5.924;2022-10-16T05:37:00;12.6;75.6
9666;DHT22;4871;52.004;5.924;2022-10-16T05:38:00;12.6;75.2
9666;DHT22;4871;52.004;5.924;2022-10-16T05:39:00;12.6;75.1
9666;DHT22;4871;52.004;5.924;2022-10-16T05:40:00;12.6;75.0
9666;DHT22;4871;52.004;5.924;2022-10-16T05:41:00;12.6;75.2
9666;DHT22;4871;52.004;5.924;2022-10-16T05:42:00;12.6;75.1
9666;DHT22;4871;52.004;5.924;2022-10-16T05:43:00;12.6;74.9
9666;DHT22;4871;52.004;5.924;2022-10-16T05:44:00;12.6;74.9
9666;DHT22;4871;52.004;5.924;2022-10-16T05:45:00;12.6;74.8
9666;DHT22;4871;52.004;5.924;2022-10-16T05:46:03;12.6;74.7
9666;DHT22;4871;52.004;5.924;2022-10-16T05:47:00;12.6;75.0
9666;DHT22;4871;52.004;5.924;2022-10-16T05:48:00;12.6;74.9
9666;DHT22;4871;52.004;5.924;2022-10-16T05:49:00;12.6;74.8
9666;DHT22;4871;52.004;5.924;2022-10-16T05:50:00;12.6;75.3
9666;DHT22;4871;52.004;5.924;2022-10-16T05:51:02;12.6;74.8
9666;DHT22;4871;52.004;5.924;2022-10-16T05:52:00;12.5;75.2
9666;DHT22;4871;52.004;5.924;2022-10-16T05:53:00;12.6;75.0
9666;DHT22;4871;52.004;5.924;2022-10-16T05:54:00;12.5;74.9
9666;DHT22;4871;52.004;5.924;2022-10-16T05:55:00;12.6;74.9
9666;DHT22;4871;52.004;5.924;2022-10-16T05:56:00;12.6;74.9
9666;DHT22;4871;52.004;5.924;2022-10-16T05:57:00;12.6;75.4
9666;DHT22;4871;52.004;5.924;2022-10-16T05:58:00;12.5;74.9
9666;DHT22;4871;52.004;5.924;2022-10-16T05:59:00;12.5;75.3
9666;DHT22;4871;52.004;5.924;2022-10-16T06:00:00;12.5;75.1
9666;DHT22;4871;52.004;5.924;2022-10-16T06:01:02;12.5;74.9
9666;DHT22;4871;52.004;5.924;2022-10-16T06:02:00;12.6;74.9
9666;DHT22;4871;52.004;5.924;2022-10-16T06:03:00;12.5;75.1
9666;DHT22;4871;52.004;5.924;2022-10-16T06:04:00;12.5;74.7
9666;DHT22;4871;52.004;5.924;2022-10-16T06:05:00;12.5;75.0
9666;DHT22;4871;52.004;5.924;2022-10-16T06:06:07;12.5;76.2
9666;DHT22;4871;52.004;5.924;2022-10-16T06:07:01;12.5;75.1
9666;DHT22;4871;52.004;5.924;2022-10-16T06:08:00;12.5;76.2
9666;DHT22;4871;52.004;5.924;2022-10-16T06:09:00;12.4;76.8
9666;DHT22;4871;52.004;5.924;2022-10-16T06:10:00;12.5;75.4
9666;DHT22;4871;52.004;5.924;2022-10-16T06:11:03;12.5;75.0
9666;DHT22;4871;52.004;5.924;2022-10-16T06:12:00;12.5;75.0
9666;DHT22;4871;52.004;5.924;2022-10-16T06:13:00;12.5;75.5
9666;DHT22;4871;52.004;5.924;2022-10-16T06:14:02;12.5;74.9
9666;DHT22;4871;52.004;5.924;2022-10-16T06:15:00;12.5;74.7
9666;DHT22;4871;52.004;5.924;2022-10-16T06:16:00;12.5;74.9
9666;DHT22;4871;52.004;5.924;2022-10-16T06:17:00;12.5;75.4
9666;DHT22;4871;52.004;5.924;2022-10-16T06:18:00;12.4;77.2
9666;DHT22;4871;52.004;5.924;2022-10-16T06:19:00;12.4;75.7
9666;DHT22;4871;52.004;5.924;2022-10-16T06:20:00;12.5;75.9
9666;DHT22;4871;52.004;5.924;2022-10-16T06:21:07;12.5;75.4
9666;DHT22;4871;52.004;5.924;2022-10-16T06:22:00;12.4;76.5
9666;DHT22;4871;52.004;5.924;2022-10-16T06:23:00;12.5;75.8
9666;DHT22;4871;52.004;5.924;2022-10-16T06:24:00;12.5;75.4
9666;DHT22;4871;52.004;5.924;2022-10-16T06:25:00;12.5;75.8
9666;DHT22;4871;52.004;5.924;2022-10-16T06:26:08;12.5;75.2
9666;DHT22;4871;52.004;5.924;2022-10-16T06:27:00;12.5;75.5
9666;DHT22;4871;52.004;5.924;2022-10-16T06:28:00;12.5;75.5
9666;DHT22;4871;52.004;5.924;2022-10-16T06:29:00;12.5;75.1
9666;DHT22;4871;52.004;5.924;2022-10-16T06:30:00;12.5;76.2
9666;DHT22;4871;52.004;5.924;2022-10-16T06:31:00;12.5;75.1
9666;DHT22;4871;52.004;5.924;2022-10-16T06:32:00;12.6;75.1
9666;DHT22;4871;52.004;5.924;2022-10-16T06:33:00;12.6;75.0
9666;DHT22;4871;52.004;5.924;2022-10-16T06:34:00;12.6;75.1
9666;DHT22;4871;52.004;5.924;2022-10-16T06:35:00;12.6;75.1
9666;DHT22;4871;52.004;5.924;2022-10-16T06:36:02;12.6;75.9
9666;DHT22;4871;52.004;5.924;2022-10-16T06:37:00;12.6;75.3
9666;DHT22;4871;52.004;5.924;2022-10-16T06:38:00;12.6;74.9
9666;DHT22;4871;52.004;5.924;2022-10-16T06:39:00;12.6;75.2
9666;DHT22;4871;52.004;5.924;2022-10-16T06:40:00;12.6;75.1
9666;DHT22;4871;52.004;5.924;2022-10-16T06:41:00;12.7;75.0
9666;DHT22;4871;52.004;5.924;2022-10-16T06:42:00;12.7;74.8
9666;DHT22;4871;52.004;5.924;2022-10-16T06:43:00;12.7;74.9
9666;DHT22;4871;52.004;5.924;2022-10-16T06:44:00;12.7;75.3
9666;DHT22;4871;52.004;5.924;2022-10-16T06:45:00;12.7;75.4
9666;DHT22;4871;52.004;5.924;2022-10-16T06:46:01;12.7;74.8
9666;DHT22;4871;52.004;5.924;2022-10-16T06:47:00;12.7;74.6
9666;DHT22;4871;52.004;5.924;2022-10-16T06:48:00;12.7;75.9